Time;durP1;ratioP1;P1;durP2;ratioP2;P2;SDS_P1;SDS_P2;PMS_P1;PMS_P2;Temp;Humidity;BMP_temperature;BMP_pressure;BME280_temperature;BME280_humidity;BME280_pressure;Samples;Min_cycle;Max_cycle;Signal;HPM_P1;HPM_P2
2022/02/11 00:00:14;;;;;;;63.03;42.70;;;;;;;10.30;53.03;102183.09;5010036;28;20042;-62
2022/02/11 00:07:41;;;;;;;64.55;42.63;;;;;;;10.25;53.50;102169.28;5014561;28;20050;-62
2022/02/11 00:10:08;;;;;;;64.40;41.40;;;;;;;10.27;52.91;102181.44;5014485;28;20432;-63
2022/02/11 00:12:35;;;;;;;62.60;41.88;;;;;;;10.24;53.30;102173.66;5014506;28;20057;-62
2022/02/11 00:15:32;;;;;;;65.35;41.97;;;;;;;10.22;53.34;102178.13;5014477;28;20454;-62
2022/02/11 00:17:50;;;;;;;65.22;41.80;;;;;;;10.19;53.58;102175.56;5012439;28;20050;-62
2022/02/11 00:20:17;;;;;;;61.65;43.25;;;;;;;10.19;53.61;102162.44;5013106;28;20045;-62
2022/02/11 00:22:44;;;;;;;65.93;43.10;;;;;;;10.19;53.59;102162.44;5014211;28;20077;-62
2022/02/11 00:25:11;;;;;;;66.72;44.38;;;;;;;10.21;53.42;102159.78;5014012;28;20478;-62
2022/02/11 00:30:38;;;;;;;64.20;42.60;;;;;;;10.17;53.68;102168.66;5014108;28;20058;-62
2022/02/11 00:35:33;;;;;;;64.57;42.75;;;;;;;10.16;53.71;102159.06;5013815;28;20049;-62
2022/02/11 00:38:06;;;;;;;63.58;44.05;;;;;;;10.18;53.54;102157.25;5013870;28;20041;-62
2022/02/11 01:02:11;;;;;;;70.25;45.05;;;;;;;10.16;52.31;102156.44;5013585;28;20077;-62
2022/02/11 01:02:11;;;;;;;72.80;45.70;;;;;;;10.10;52.44;102157.50;5013441;28;20100;-63
2022/02/11 01:04:38;;;;;;;71.97;45.13;;;;;;;10.08;52.44;102154.06;5013325;28;20284;-63
2022/02/11 01:07:06;;;;;;;66.40;44.13;;;;;;;10.07;52.42;102149.75;5012400;28;20553;-62
2022/02/11 01:09:33;;;;;;;65.22;42.63;;;;;;;10.06;52.56;102148.03;5013256;28;20656;-62
2022/02/11 01:12:03;;;;;;;68.88;44.47;;;;;;;10.06;52.47;102148.88;5013282;28;20049;-62
2022/02/11 01:14:37;;;;;;;63.97;42.38;;;;;;;10.06;52.64;102140.16;5013191;28;20050;-62
2022/02/11 01:17:12;;;;;;;69.40;44.25;;;;;;;10.05;52.74;102136.66;5013307;28;20046;-62
2022/02/11 01:51:14;;;;;;;68.80;44.53;;;;;;;9.92;53.79;102120.47;5013069;28;20053;-62
2022/02/11 01:53:53;;;;;;;64.53;44.05;;;;;;;9.91;53.93;102118.75;5012845;28;20042;-63
2022/02/11 02:04:32;;;;;;;69.50;44.53;;;;;;;9.84;54.38;102106.75;5012622;28;20046;-63
2022/02/11 02:26:23;;;;;;;66.13;44.17;;;;;;;9.84;54.16;102087.53;4990671;28;20050;-62
2022/02/11 02:36:55;;;;;;;;;;;;;;;9.86;53.77;102070.00;4993062;28;19941;-63
2022/02/11 02:50:25;;;;;;;70.30;44.50;;;;;;;9.84;53.79;102051.69;5016097;28;20065;-63
2022/02/11 02:58:28;;;;;;;69.20;45.88;;;;;;;9.83;54.10;102043.84;5015779;28;20053;-63
2022/02/11 03:01:46;;;;;;;69.88;46.38;;;;;;;9.83;54.07;102046.47;5015923;28;20088;-63
2022/02/11 03:34:45;;;;;;;68.35;44.92;;;;;;;9.74;53.61;102051.13;5015049;28;20046;-62
2022/02/11 04:59:59;;;;;;;73.47;46.45;;;;;;;9.62;54.62;102043.66;4990689;28;20340;-63
2022/02/11 05:02:30;;;;;;;74.15;47.00;;;;;;;9.60;54.63;102046.31;4990540;28;20061;-63
2022/02/11 05:04:57;;;;;;;74.35;47.35;;;;;;;9.59;54.77;102041.97;4989793;28;20054;-63
2022/02/11 05:07:23;;;;;;;72.35;47.47;;;;;;;9.58;54.80;102039.41;4990420;28;20753;-62
2022/02/11 05:09:50;;;;;;;72.25;46.65;;;;;;;9.57;54.93;102043.81;4990771;28;20046;-63
2022/02/11 05:12:17;;;;;;;74.10;47.50;;;;;;;9.55;55.00;102042.13;4990589;28;20050;-63
2022/02/11 05:14:43;;;;;;;73.80;47.95;;;;;;;9.54;55.06;102038.66;5002160;28;20108;-63
2022/02/11 05:17:10;;;;;;;71.22;45.65;;;;;;;9.55;55.22;102031.63;5010096;28;20052;-64
2022/02/11 05:19:37;;;;;;;68.95;46.17;;;;;;;9.56;55.38;102034.22;5009868;28;20046;-63
2022/02/11 05:22:04;;;;;;;70.45;47.53;;;;;;;9.55;55.53;102029.00;5009864;28;20053;-63
2022/02/11 05:24:30;;;;;;;73.00;47.17;;;;;;;9.53;55.63;102015.97;5009760;28;20499;-63
2022/02/11 05:26:57;;;;;;;69.25;46.85;;;;;;;9.51;55.92;102032.66;5009727;28;20050;-62
2022/02/11 05:29:24;;;;;;;72.03;46.75;;;;;;;9.52;55.70;102034.38;5009459;28;20491;-63
2022/02/11 05:31:51;;;;;;;68.47;45.45;;;;;;;9.50;55.85;102026.56;5008713;28;20046;-63
2022/02/11 05:34:18;;;;;;;72.57;46.90;;;;;;;9.51;55.74;102027.41;5009681;28;20054;-63
2022/02/11 05:36:44;;;;;;;73.93;48.25;;;;;;;9.48;55.78;102024.00;5009604;28;20604;-63
2022/02/11 05:39:11;;;;;;;73.53;47.72;;;;;;;9.48;56.17;102023.13;5009647;28;20060;-63
2022/02/11 05:41:38;;;;;;;72.95;48.25;;;;;;;9.48;56.21;102020.50;5009682;28;20053;-63
2022/02/11 05:44:05;;;;;;;70.95;47.30;;;;;;;9.47;56.23;102022.28;5009827;28;20057;-63
2022/02/11 05:46:31;;;;;;;72.32;47.75;;;;;;;9.47;56.23;102019.66;5009631;28;20047;-63
2022/02/11 05:48:59;;;;;;;69.40;47.83;;;;;;;9.48;56.29;102021.38;5008624;28;20045;-64
2022/02/11 05:51:26;;;;;;;71.70;47.03;;;;;;;9.50;56.52;102012.59;4998240;28;20637;-63
2022/02/11 05:53:52;;;;;;;69.72;47.08;;;;;;;9.51;56.61;102022.16;4989908;28;20494;-63
2022/02/11 05:56:19;;;;;;;72.32;47.38;;;;;;;9.48;56.59;102020.50;4989816;28;20050;-63
2022/02/11 05:58:46;;;;;;;68.85;47.15;;;;;;;9.47;56.66;102016.16;4989371;28;20096;-62
2022/02/11 06:01:12;;;;;;;71.05;46.90;;;;;;;9.51;56.47;102017.81;4995419;28;20042;-60
2022/02/11 06:03:39;;;;;;;70.30;46.50;;;;;;;9.55;56.42;102021.16;5005857;28;20058;-60
2022/02/11 06:06:06;;;;;;;68.70;44.47;;;;;;;9.54;56.69;102017.69;5008144;28;20048;-61
2022/02/11 06:08:32;;;;;;;68.75;46.50;;;;;;;9.54;56.93;102011.59;5008866;28;20108;-61
2022/02/11 06:10:59;;;;;;;69.82;46.38;;;;;;;9.54;56.99;102017.69;5009241;28;20053;-60
2022/02/11 06:13:25;;;;;;;72.60;46.83;;;;;;;9.54;57.06;102009.81;5009069;28;20054;-61
2022/02/11 06:15:53;;;;;;;73.32;46.38;;;;;;;9.54;57.22;102008.97;5009505;28;20068;-60
2022/02/11 06:18:21;;;;;;;69.82;46.20;;;;;;;9.55;57.35;102013.28;5013173;28;20085;-60
2022/02/11 06:20:48;;;;;;;69.75;46.22;;;;;;;9.55;57.41;102018.53;5003440;28;20049;-61
2022/02/11 06:23:14;;;;;;;68.43;47.30;;;;;;;9.53;57.48;102015.97;4996600;28;20660;-60
2022/02/11 06:25:43;;;;;;;68.65;46.70;;;;;;;9.54;57.65;102012.44;5013349;28;20467;-60
2022/02/11 06:28:11;;;;;;;68.95;46.67;;;;;;;9.56;57.33;102022.88;5013471;28;20468;-61
2022/02/11 06:30:38;;;;;;;70.10;47.25;;;;;;;9.53;57.44;102023.84;5013242;28;20053;-61
2022/02/11 06:33:05;;;;;;;72.07;46.55;;;;;;;9.51;57.48;102017.81;5013191;28;20049;-61
2022/02/11 06:35:34;;;;;;;74.22;48.40;;;;;;;9.54;57.52;102024.72;5012701;28;20050;-61
2022/02/11 06:38:01;;;;;;;68.45;44.33;;;;;;;9.55;57.24;102024.66;5012803;28;20050;-60
2022/02/11 06:40:31;;;;;;;74.55;46.78;;;;;;;9.55;57.28;102024.66;5012704;28;20054;-60
2022/02/11 06:42:59;;;;;;;71.45;45.90;;;;;;;9.53;57.03;102023.84;5011691;28;20053;-61
2022/02/11 06:45:25;;;;;;;70.13;46.95;;;;;;;9.54;56.90;102020.31;5012372;28;20092;-62
2022/02/11 06:47:53;;;;;;;74.97;47.35;;;;;;;9.54;56.70;102028.16;5012634;28;20050;-62
2022/02/11 06:50:20;;;;;;;76.65;48.58;;;;;;;9.55;56.56;102026.41;5012741;28;20049;-61
2022/02/11 06:52:49;;;;;;;76.00;49.13;;;;;;;9.60;56.37;102030.59;5012818;28;20048;-61
2022/02/11 06:55:16;;;;;;;83.68;49.95;;;;;;;9.57;56.34;102024.59;5011419;28;20128;-61
2022/02/11 06:57:42;;;;;;;74.50;47.45;;;;;;;9.57;56.44;102029.84;5011948;28;20054;-61
2022/02/11 07:00:12;;;;;;;80.38;47.88;;;;;;;9.56;56.29;102022.88;5012423;28;20092;-61
2022/02/11 07:02:39;;;;;;;39.47;25.73;;;;;;;10.34;56.53;102019.41;5012754;28;20053;-62
2022/02/11 07:05:06;;;;;;;75.07;47.22;;;;;;;10.27;56.68;102024.03;5012042;28;20073;-62
2022/02/11 07:07:34;;;;;;;71.35;45.85;;;;;;;10.11;56.70;102028.09;5010834;28;20490;-62
2022/02/11 07:10:00;;;;;;;80.80;46.83;;;;;;;9.91;57.06;102034.84;5010639;28;20058;-62
2022/02/11 07:12:27;;;;;;;71.07;47.90;;;;;;;9.82;56.70;102022.03;5006080;28;20112;-62
2022/02/11 07:14:54;;;;;;;71.00;47.63;;;;;;;9.79;56.60;102032.66;5003260;28;20042;-62
2022/02/11 07:17:20;;;;;;;73.18;46.58;;;;;;;9.76;56.16;102030.09;5000869;28;20050;-62
2022/02/11 07:19:47;;;;;;;72.13;46.58;;;;;;;9.74;56.30;102032.78;5002256;28;20061;-62
2022/02/11 07:22:13;;;;;;;76.72;48.30;;;;;;;9.72;56.35;102031.13;5002602;28;20463;-62
2022/02/11 07:24:41;;;;;;;81.57;47.50;;;;;;;9.73;56.16;102040.69;5000817;28;20050;-62
2022/02/11 07:27:09;;;;;;;77.50;48.00;;;;;;;9.72;56.11;102038.97;5001812;28;20042;-62
2022/02/11 07:29:36;;;;;;;73.18;47.00;;;;;;;9.71;56.19;102039.88;5000924;28;20069;-62
2022/02/11 07:32:03;;;;;;;78.03;47.38;;;;;;;9.70;55.92;102044.28;5002756;28;20046;-62
2022/02/11 07:34:30;;;;;;;75.43;47.35;;;;;;;9.69;55.88;102041.69;5001832;28;20100;-62
2022/02/11 07:36:56;;;;;;;74.00;46.28;;;;;;;9.68;55.84;102045.25;5000821;28;20399;-62
2022/02/11 07:39:50;;;;;;;73.78;47.50;;;;;;;9.68;55.56;102050.47;5000869;28;20422;-62
2022/02/11 07:42:20;;;;;;;;;;;;;;;9.67;55.70;102048.75;4992789;28;20042;-62
2022/02/11 07:44:47;;;;;;;74.10;46.85;;;;;;;9.69;55.47;102042.56;5006954;28;19961;-62
2022/02/11 07:47:14;;;;;;;76.35;48.40;;;;;;;9.72;55.42;102054.72;5010537;28;20041;-62
2022/02/11 07:49:40;;;;;;;88.05;49.35;;;;;;;9.72;55.53;102055.56;5010730;28;20050;-62
2022/02/11 07:52:07;;;;;;;82.28;48.63;;;;;;;9.70;55.50;102054.75;5011480;28;20053;-62
2022/02/11 07:54:34;;;;;;;71.82;47.03;;;;;;;9.73;55.47;102059.06;5011018;28;20073;-62
2022/02/11 07:57:00;;;;;;;71.88;46.88;;;;;;;9.73;55.46;102062.50;5010870;28;20049;-62
2022/02/11 07:59:27;;;;;;;75.22;47.80;;;;;;;9.74;55.49;102064.25;5010608;28;20045;-62
2022/02/11 08:01:54;;;;;;;79.03;47.80;;;;;;;9.73;55.39;102065.13;5010917;28;20447;-62
2022/02/11 08:04:21;;;;;;;81.65;47.83;;;;;;;9.73;55.61;102056.44;5009774;28;20049;-62
2022/02/11 08:06:48;;;;;;;77.05;47.10;;;;;;;9.73;55.43;102064.28;5010977;28;20050;-62
2022/02/11 08:09:15;;;;;;;76.40;47.97;;;;;;;9.72;55.64;102055.56;5009962;28;20058;-62
2022/02/11 08:11:42;;;;;;;77.05;47.72;;;;;;;9.73;55.66;102061.66;5010977;28;20072;-63
2022/02/11 08:14:09;;;;;;;76.35;47.70;;;;;;;9.73;55.69;102065.13;5010972;28;20421;-62
2022/02/11 08:16:35;;;;;;;72.88;46.47;;;;;;;9.70;55.71;102049.53;5011001;28;20076;-62
2022/02/11 08:19:02;;;;;;;76.38;48.25;;;;;;;9.71;55.73;102053.84;5008523;28;20100;-62
2022/02/11 08:21:29;;;;;;;71.03;45.88;;;;;;;9.70;55.79;102056.50;5010156;28;20050;-62
2022/02/11 08:23:56;;;;;;;74.97;48.50;;;;;;;9.69;55.79;102057.41;5010548;28;20042;-62
2022/02/11 08:26:22;;;;;;;68.40;47.78;;;;;;;9.68;55.90;102058.34;5003823;28;20046;-63
2022/02/11 08:28:49;;;;;;;75.95;47.33;;;;;;;9.67;55.91;102054.84;5000265;28;20096;-62
2022/02/11 08:31:16;;;;;;;78.00;49.05;;;;;;;9.69;56.01;102060.03;4998692;28;20058;-62
2022/02/11 08:33:46;;;;;;;75.93;47.80;;;;;;;9.69;56.17;102057.41;5001150;28;20578;-62
2022/02/11 08:36:13;;;;;;;76.00;48.63;;;;;;;9.70;56.15;102064.38;4999978;28;20052;-62
2022/02/11 08:38:39;;;;;;;70.82;47.70;;;;;;;9.69;56.28;102065.28;4999625;28;20096;-62
2022/02/11 08:41:07;;;;;;;78.88;49.25;;;;;;;9.70;56.26;102069.63;5006269;28;20050;-62
2022/02/11 08:43:34;;;;;;;73.55;47.97;;;;;;;9.70;56.29;102067.88;5010401;28;20133;-62
2022/02/11 08:46:01;;;;;;;77.95;49.95;;;;;;;9.72;56.20;102062.56;5010476;28;20116;-62
2022/02/11 08:48:28;;;;;;;75.47;49.10;;;;;;;9.73;56.26;102070.38;5009745;28;20053;-62
2022/02/11 08:50:54;;;;;;;74.68;47.65;;;;;;;9.73;56.34;102064.28;5009629;28;20042;-62
2022/02/11 08:53:32;;;;;;;71.28;47.30;;;;;;;9.74;56.06;102066.00;5009957;28;20096;-62
2022/02/11 08:56:06;;;;;;;75.25;48.42;;;;;;;9.73;56.25;102072.16;5009013;28;20418;-62
2022/02/11 08:58:34;;;;;;;74.53;48.10;;;;;;;9.74;56.08;102064.25;5009803;28;20160;-62
2022/02/11 09:01:01;;;;;;;75.40;47.83;;;;;;;9.79;55.90;102064.94;5009833;28;20050;-62
2022/02/11 09:03:28;;;;;;;68.82;46.85;;;;;;;9.81;55.79;102067.50;5009480;28;20108;-62
2022/02/11 09:05:54;;;;;;;74.47;47.03;;;;;;;9.83;55.85;102063.09;5009741;28;20125;-62
2022/02/11 09:08:22;;;;;;;75.30;48.70;;;;;;;9.87;55.67;102072.56;5009677;28;20050;-62
2022/02/11 09:10:51;;;;;;;72.82;48.30;;;;;;;9.89;55.47;102065.50;5009884;28;20104;-62
2022/02/11 09:13:18;;;;;;;77.13;47.58;;;;;;;9.94;55.29;102068.84;5007975;28;20042;-62
2022/02/11 09:15:48;;;;;;;72.07;47.78;;;;;;;10.02;55.01;102073.84;5009590;28;20499;-62
2022/02/11 09:18:15;;;;;;;80.10;49.55;;;;;;;10.03;54.86;102074.69;5009337;28;20057;-62
2022/02/11 09:20:42;;;;;;;74.00;47.28;;;;;;;10.07;54.59;102065.81;5009626;28;20137;-62
2022/02/11 09:23:08;;;;;;;74.55;46.80;;;;;;;10.15;54.43;102070.81;5009100;28;20046;-62
2022/02/11 09:25:35;;;;;;;74.40;47.70;;;;;;;10.20;54.30;102069.72;5009343;28;20064;-62
2022/02/11 09:28:01;;;;;;;75.18;49.13;;;;;;;10.25;54.20;102069.59;5008337;28;20069;-62
2022/02/11 09:30:28;;;;;;;76.38;47.03;;;;;;;10.30;53.85;102067.66;5009266;28;20061;-62
2022/02/11 09:32:59;;;;;;;74.80;48.13;;;;;;;10.40;53.53;102070.88;5009290;28;20056;-62
2022/02/11 09:35:28;;;;;;;78.10;49.08;;;;;;;10.47;53.17;102069.72;5009195;28;20096;-62
2022/02/11 09:37:56;;;;;;;77.57;48.28;;;;;;;10.56;53.13;102063.31;5009703;28;20042;-62
2022/02/11 09:40:23;;;;;;;76.93;48.13;;;;;;;10.66;52.74;102063.84;5009366;28;20064;-62
2022/02/11 09:42:53;;;;;;;77.22;47.65;;;;;;;10.66;52.48;102069.09;5009214;28;20049;-62
2022/02/11 09:45:21;;;;;;;74.82;47.80;;;;;;;10.72;52.00;102059.22;5007209;28;20042;-62
2022/02/11 09:47:51;;;;;;;75.22;47.67;;;;;;;10.80;51.68;102066.81;5009574;28;20067;-62
2022/02/11 09:50:20;;;;;;;78.75;47.65;;;;;;;10.87;51.49;102067.44;5008556;28;20125;-62
2022/02/11 09:52:51;;;;;;;80.68;48.33;;;;;;;10.93;51.24;102060.22;5008923;28;20398;-62
2022/02/11 09:55:32;;;;;;;79.47;49.13;;;;;;;10.97;51.02;102065.34;5008361;28;20042;-62
2022/02/11 09:58:07;;;;;;;80.30;49.33;;;;;;;11.05;50.71;102072.03;5009066;28;20050;-62
2022/02/11 10:00:36;;;;;;;74.53;47.47;;;;;;;11.13;50.38;102061.22;5008871;28;20071;-62
2022/02/11 10:03:13;;;;;;;76.28;47.53;;;;;;;11.07;50.48;102066.72;5008059;28;20041;-62
2022/02/11 10:05:46;;;;;;;73.45;47.08;;;;;;;11.14;50.32;102067.34;5008426;28;20104;-63
2022/02/11 10:08:12;;;;;;;76.82;48.88;;;;;;;11.13;50.47;102063.84;5009042;28;20124;-62
2022/02/11 10:10:39;;;;;;;72.97;46.40;;;;;;;11.14;50.51;102054.22;5008545;28;20076;-62
2022/02/11 10:13:20;;;;;;;69.90;45.78;;;;;;;11.19;50.26;102058.38;5008756;28;20846;-62
2022/02/11 10:15:52;;;;;;;72.95;46.22;;;;;;;11.24;50.22;102058.22;5008329;28;20450;-62
2022/02/11 10:18:20;;;;;;;71.38;44.45;;;;;;;11.33;50.15;102060.47;5008665;28;20050;-62
2022/02/11 10:20:50;;;;;;;75.05;46.22;;;;;;;11.33;50.15;102054.38;5008130;28;20056;-62
2022/02/11 10:23:25;;;;;;;69.38;46.08;;;;;;;11.60;49.59;102060.31;5008629;28;20418;-62
2022/02/11 10:25:53;;;;;;;68.13;43.25;;;;;;;11.65;49.61;102060.13;5008271;28;20077;-62
2022/02/11 10:28:39;;;;;;;69.65;44.83;;;;;;;11.64;49.63;102050.53;5008702;28;20049;-62
2022/02/11 10:31:19;;;;;;;75.57;46.03;;;;;;;11.65;49.65;102045.19;5008646;28;20177;-62
2022/02/11 10:34:06;;;;;;;69.25;45.00;;;;;;;11.74;49.31;102044.84;5008592;28;20049;-62
2022/02/11 10:36:41;;;;;;;66.85;43.15;;;;;;;11.86;49.11;102050.50;5007567;28;20054;-62
2022/02/11 10:39:19;;;;;;;66.22;42.38;;;;;;;11.98;48.74;102042.13;5008457;28;20499;-62
2022/02/11 10:41:50;;;;;;;70.25;41.55;;;;;;;11.96;48.96;102045.75;5008733;28;20046;-62
2022/02/11 10:44:18;;;;;;;61.72;38.10;;;;;;;11.83;48.98;102042.75;5008075;28;20049;-62
2022/02/11 10:46:54;;;;;;;62.42;40.05;;;;;;;11.80;48.95;102042.88;4995877;28;20078;-62
2022/02/11 10:49:51;;;;;;;58.78;37.70;;;;;;;11.68;48.79;102037.19;4999255;28;20051;-61
2022/02/11 10:52:20;;;;;;;59.83;38.85;;;;;;;11.74;48.59;102036.97;4998903;28;20042;-62
2022/02/11 10:54:55;;;;;;;64.40;41.40;;;;;;;11.75;48.52;102041.28;4997977;28;20042;-62
2022/02/11 10:57:27;;;;;;;66.97;41.83;;;;;;;11.72;48.47;102038.78;4997136;28;20471;-62
2022/02/11 10:59:55;;;;;;;68.05;41.08;;;;;;;11.71;48.59;102025.69;4997520;28;20046;-62
2022/02/11 11:02:23;;;;;;;62.00;41.25;;;;;;;11.79;48.38;102028.00;5005370;28;20050;-61
2022/02/11 11:04:54;;;;;;;65.18;41.65;;;;;;;11.89;48.03;102017.03;5011368;28;20057;-62
2022/02/11 11:07:28;;;;;;;69.25;42.20;;;;;;;12.01;47.88;102023.59;5010305;28;20092;-62
2022/02/11 11:10:15;;;;;;;66.32;41.05;;;;;;;12.08;47.58;102018.94;4992507;28;20058;-62
2022/02/11 11:12:54;;;;;;;63.08;40.58;;;;;;;12.08;47.81;102017.16;4992200;28;20120;-62
2022/02/11 11:15:23;;;;;;;63.13;42.63;;;;;;;12.15;47.63;102011.63;4994811;28;20054;-61
2022/02/11 11:17:51;;;;;;;65.50;41.60;;;;;;;12.22;47.53;102010.44;4991922;28;20050;-62
2022/02/11 11:20:23;;;;;;;66.57;42.10;;;;;;;12.44;47.12;102001.63;4991967;28;20055;-62
2022/02/11 11:22:59;;;;;;;67.40;41.38;;;;;;;12.58;46.66;102004.47;4991860;28;20166;-62
2022/02/11 11:25:49;;;;;;;64.15;41.33;;;;;;;12.54;46.81;101997.63;5011497;28;20088;-61
2022/02/11 11:28:38;;;;;;;65.55;41.67;;;;;;;12.50;46.78;101994.28;5010977;28;20057;-61
2022/02/11 11:31:15;;;;;;;64.68;42.00;;;;;;;12.86;46.02;101987.41;5011432;28;20123;-62
2022/02/11 11:33:42;;;;;;;62.30;38.92;;;;;;;13.40;44.78;101990.19;5011481;28;20087;-61
2022/02/11 11:36:16;;;;;;;62.08;41.05;;;;;;;13.59;44.37;101984.88;5011534;28;20046;-62
2022/02/11 11:38:48;;;;;;;61.55;41.47;;;;;;;13.37;44.88;101985.06;5011080;28;20046;-61
2022/02/11 11:41:28;;;;;;;63.30;40.97;;;;;;;13.18;45.44;101991.19;5009999;28;20060;-62
2022/02/11 11:44:14;;;;;;;65.15;40.88;;;;;;;13.05;45.66;101980.38;5009059;28;20046;-62
2022/02/11 11:47:30;;;;;;;61.08;40.40;;;;;;;13.05;45.62;101985.66;5011480;28;20454;-62
2022/02/11 11:49:58;;;;;;;60.83;40.60;;;;;;;12.93;46.22;101985.38;4993371;28;20081;-61
2022/02/11 11:52:46;;;;;;;57.38;39.92;;;;;;;12.99;46.25;101987.69;5010930;28;20482;-62
2022/02/11 11:55:14;;;;;;;61.33;40.85;;;;;;;13.12;46.07;101988.00;5010916;28;20042;-62
2022/02/11 11:57:41;;;;;;;63.40;40.00;;;;;;;12.99;46.46;101982.41;5010251;28;20049;-61
2022/02/11 12:00:08;;;;;;;58.50;40.00;;;;;;;12.88;46.74;101985.56;5010729;28;20053;-62
2022/02/11 12:02:38;;;;;;;60.55;42.13;;;;;;;13.02;46.60;101971.75;5011202;28;20046;-61
2022/02/11 12:05:05;;;;;;;64.78;40.17;;;;;;;13.17;46.08;101968.38;5011260;28;20078;-61
2022/02/11 12:07:34;;;;;;;61.88;40.08;;;;;;;13.50;45.66;101969.50;5010978;28;20050;-61
2022/02/11 12:10:07;;;;;;;60.05;39.85;;;;;;;13.55;45.78;101970.13;5010859;28;20057;-62
2022/02/11 12:12:37;;;;;;;32.35;19.38;;;;;;;13.81;45.68;101963.53;5010463;28;20050;-63
2022/02/11 12:15:09;;;;;;;56.30;37.83;;;;;;;14.04;45.89;101951.81;5009983;28;20045;-62
2022/02/11 12:17:36;;;;;;;58.90;39.05;;;;;;;13.70;46.67;101968.50;5010855;28;20045;-63
2022/02/11 12:20:05;;;;;;;61.28;39.70;;;;;;;13.49;47.08;101963.34;4997002;28;20072;-61
2022/02/11 12:22:32;;;;;;;54.55;37.35;;;;;;;13.35;47.44;101957.88;5010036;28;20054;-63
2022/02/11 12:27:51;;;;;;;64.25;39.35;;;;;;;13.51;46.89;101961.50;5001280;28;20124;-62
2022/02/11 12:30:22;;;;;;;57.38;37.25;;;;;;;13.68;46.43;101947.47;5009849;28;20054;-63
2022/02/11 12:32:57;;;;;;;67.93;46.47;;;;;;;13.93;45.80;101948.00;5010168;28;20045;-62
2022/02/11 12:35:28;;;;;;;58.83;38.83;;;;;;;13.97;45.91;101942.50;5010104;28;20093;-63
2022/02/11 12:37:57;;;;;;;63.50;41.83;;;;;;;13.87;46.27;101944.75;5010241;28;20085;-62
2022/02/11 12:40:28;;;;;;;64.53;45.20;;;;;;;13.86;46.54;101939.56;5010230;28;20053;-62
2022/02/11 12:43:00;;;;;;;55.55;38.03;;;;;;;13.75;46.50;101945.41;5008459;28;20041;-62
2022/02/11 12:45:51;;;;;;;59.85;39.33;;;;;;;13.60;46.94;101935.59;5009059;28;20514;-62
2022/02/11 12:48:17;;;;;;;71.85;47.70;;;;;;;13.73;46.74;101926.13;5008162;28;20065;-62
2022/02/11 12:50:48;;;;;;;63.38;40.92;;;;;;;14.31;45.24;101914.31;5009508;28;20054;-62
2022/02/11 12:53:17;;;;;;;60.70;40.97;;;;;;;14.53;44.87;101910.53;5009199;28;20422;-62
2022/02/11 12:55:49;;;;;;;61.80;41.13;;;;;;;14.14;45.94;101917.00;5009588;28;20046;-63
2022/02/11 12:58:19;;;;;;;59.42;39.22;;;;;;;14.09;46.18;101919.88;5009398;28;20044;-62
2022/02/11 13:00:48;;;;;;;64.07;40.92;;;;;;;13.95;46.56;101912.69;5009380;28;20057;-62
2022/02/11 13:03:17;;;;;;;60.08;40.45;;;;;;;14.02;46.44;101903.50;5005269;28;20092;-63
2022/02/11 13:05:52;;;;;;;66.22;41.47;;;;;;;14.49;45.35;101901.91;5006743;28;20034;-62
2022/02/11 13:08:25;;;;;;;60.90;39.75;;;;;;;14.71;45.13;101905.19;5009483;28;20077;-62
2022/02/11 13:10:57;;;;;;;59.67;40.05;;;;;;;15.10;44.27;101904.72;5005722;28;20047;-62
2022/02/11 13:13:24;;;;;;;61.92;38.97;;;;;;;15.11;44.37;101903.78;4996956;28;20493;-63
2022/02/11 13:15:54;;;;;;;58.42;41.03;;;;;;;15.11;44.25;101895.00;5009800;28;20116;-63
2022/02/11 13:18:22;;;;;;;63.28;40.58;;;;;;;15.31;43.87;101883.28;5008633;28;20041;-62
2022/02/11 13:20:52;;;;;;;56.83;39.10;;;;;;;15.19;44.28;101888.31;5000072;28;20046;-62
2022/02/11 13:23:24;;;;;;;56.38;39.28;;;;;;;15.52;43.82;101887.28;4998168;28;20050;-62
2022/02/11 13:25:52;;;;;;;55.40;40.60;;;;;;;15.58;43.36;101890.50;4998212;28;20053;-62
2022/02/11 13:28:20;;;;;;;59.92;39.35;;;;;;;15.49;43.68;101887.47;4999043;28;20042;-62
2022/02/11 13:30:56;;;;;;;60.90;39.90;;;;;;;15.77;43.27;101885.84;5000131;28;20054;-62
2022/02/11 13:33:41;;;;;;;;;;;;;;;15.93;42.96;101874.34;4999185;28;20053;-62
2022/02/11 13:36:10;;;;;;;55.90;37.80;;;;;;;15.99;42.88;101885.41;4998154;28;19921;-62
2022/02/11 13:38:39;;;;;;;61.33;39.42;;;;;;;15.69;43.58;101874.84;4998032;28;20450;-62
2022/02/11 13:41:09;;;;;;;41.53;27.13;;;;;;;15.86;43.34;101875.66;4998719;28;20550;-63
2022/02/11 13:43:49;;;;;;;36.08;20.75;;;;;;;16.09;43.53;101876.91;5000141;28;20069;-63
2022/02/11 13:46:40;;;;;;;45.30;29.15;;;;;;;16.14;43.73;101875.66;4998868;28;20459;-63
2022/02/11 13:49:16;;;;;;;44.58;30.70;;;;;;;16.02;44.48;101880.88;5002084;28;20045;-64
2022/02/11 13:53:01;;;;;;;41.55;27.98;;;;;;;15.75;45.01;101881.59;4999969;28;20046;-64
2022/02/11 13:54:31;;;;;;;58.17;39.50;;;;;;;15.30;46.01;101882.44;4998998;28;20042;-62
2022/02/11 13:57:00;;;;;;;60.60;38.80;;;;;;;14.91;46.62;101883.78;4997489;28;20183;-63
2022/02/11 13:59:30;;;;;;;59.67;38.10;;;;;;;14.68;46.86;101885.09;4998310;28;20046;-62
2022/02/11 14:02:04;;;;;;;59.85;38.70;;;;;;;14.50;46.99;101869.28;5009227;28;20049;-62
2022/02/11 14:04:33;;;;;;;57.58;39.75;;;;;;;14.34;47.09;101876.34;5009180;28;20453;-62
2022/02/11 14:07:02;;;;;;;56.65;40.95;;;;;;;14.00;48.10;101878.97;5006874;28;20520;-62
2022/02/11 14:09:35;;;;;;;58.80;38.65;;;;;;;13.86;48.31;101879.75;5009402;28;20081;-62
2022/02/11 14:12:13;;;;;;;61.92;40.95;;;;;;;13.88;48.16;101879.66;5009028;28;20100;-62
2022/02/11 14:14:52;;;;;;;60.13;41.13;;;;;;;14.02;47.75;101879.75;5008745;28;20046;-62
2022/02/11 14:17:18;;;;;;;70.38;46.58;;;;;;;14.13;47.59;101871.28;5008550;28;20050;-63
2022/02/11 14:19:46;;;;;;;62.75;40.15;;;;;;;14.18;47.56;101873.66;5009161;28;20052;-62
2022/02/11 14:22:12;;;;;;;55.38;37.10;;;;;;;14.30;47.43;101873.00;5008818;28;20475;-62
2022/02/11 14:24:40;;;;;;;64.05;42.25;;;;;;;14.67;46.58;101878.94;5005950;28;20422;-62
2022/02/11 14:27:07;;;;;;;66.28;43.25;;;;;;;14.59;47.09;101891.69;5008146;28;20050;-62
2022/02/11 14:29:34;;;;;;;60.90;38.38;;;;;;;14.24;48.06;101880.41;5008654;28;20050;-62
2022/02/11 14:32:01;;;;;;;99.75;58.08;;;;;;;13.99;48.66;101884.34;5009056;28;20058;-62
2022/02/11 14:34:27;;;;;;;67.15;40.47;;;;;;;13.98;49.10;101891.44;5008854;28;20054;-62
2022/02/11 14:36:54;;;;;;;91.20;54.53;;;;;;;13.95;49.22;101893.38;5008590;28;20085;-62
2022/02/11 14:39:20;;;;;;;62.42;36.95;;;;;;;13.94;49.13;101896.94;5010978;28;20065;-62
2022/02/11 14:41:50;;;;;;;61.60;40.20;;;;;;;13.86;49.43;101898.22;5009204;28;20653;-62
2022/02/11 14:44:25;;;;;;;67.47;39.25;;;;;;;13.81;49.61;101894.94;5007417;28;20045;-61
2022/02/11 14:46:53;;;;;;;;;;;;;;;13.70;50.33;101892.00;5008234;28;20129;-62
2022/02/11 14:49:20;;;;;;;60.75;38.05;;;;;;;13.61;50.46;101906.53;5007297;28;19922;-61
2022/02/11 14:51:50;;;;;;;65.30;41.58;;;;;;;13.53;50.79;101903.41;5011676;28;20565;-61
2022/02/11 14:54:17;;;;;;;68.22;40.08;;;;;;;13.51;50.85;101910.53;5011941;28;20104;-62
2022/02/11 14:56:45;;;;;;;74.30;42.63;;;;;;;13.49;51.20;101915.88;5009802;28;20049;-61
2022/02/11 14:59:11;;;;;;;140.43;73.60;;;;;;;13.42;51.53;101914.50;5011533;28;20445;-61
2022/02/11 15:01:46;;;;;;;83.32;51.05;;;;;;;13.39;51.70;101915.53;5012122;28;20058;-61
2022/02/11 15:04:15;;;;;;;62.03;39.25;;;;;;;13.34;51.99;101922.75;5011912;28;20056;-62
2022/02/11 15:06:50;;;;;;;79.15;46.78;;;;;;;13.31;52.04;101928.19;5009130;28;20415;-61
2022/02/11 15:09:19;;;;;;;79.35;48.67;;;;;;;13.33;52.40;101923.69;5008876;28;20042;-61
2022/02/11 15:11:46;;;;;;;54.17;36.35;;;;;;;13.45;52.01;101924.06;5011660;28;20108;-61
2022/02/11 15:14:18;;;;;;;72.75;41.90;;;;;;;13.44;52.03;101925.81;5011225;28;20077;-61
2022/02/11 15:16:45;;;;;;;55.33;37.13;;;;;;;13.47;52.19;101923.03;5011788;28;20050;-61